Time,TemperatureF,DewpointF,PressureIn,WindDirection,WindDirectionDegrees,WindSpeedMPH,WindSpeedGustMPH,Humidity,HourlyPrecipIn,Conditions,Clouds,dailyrainin,SoftwareType,DateUTC
2013-05-20 00:03:00,55.0,53.0,30.19,SW,224,0.0,-999.0,94,-99.99,,,0.00,weatherlink.com 1.10,2013-05-20 04:03:00,
2013-05-20 00:18:00,55.0,53.0,30.18,SW,224,0.0,-999.0,94,-99.99,,,0.00,weatherlink.com 1.10,2013-05-20 04:18:00,
2013-05-20 00:33:00,55.0,53.0,30.17,SW,224,0.0,-999.0,94,-99.99,,,0.00,weatherlink.com 1.10,2013-05-20 04:33:00,
2013-05-20 00:48:00,55.1,54.0,30.16,SW,222,0.0,-999.0,94,-99.99,,,0.00,weatherlink.com 1.10,2013-05-20 04:48:00,
2013-05-20 01:03:00,55.1,54.0,30.15,SW,222,0.0,-999.0,94,-99.99,,,0.00,weatherlink.com 1.10,2013-05-20 05:03:00,
2013-05-20 01:18:00,55.2,54.0,30.15,SW,222,0.0,-999.0,94,-99.99,,,0.00,weatherlink.com 1.10,2013-05-20 05:18:00,
2013-05-20 01:33:00,55.3,54.0,30.15,SW,222,0.0,-999.0,94,-99.99,,,0.00,weatherlink.com 1.10,2013-05-20 05:33:00,
2013-05-20 01:48:00,55.3,54.0,30.14,SW,222,0.0,-999.0,94,-99.99,,,0.00,weatherlink.com 1.10,2013-05-20 05:48:00,
2013-05-20 02:03:00,55.4,54.0,30.14,SW,222,0.0,-999.0,94,-99.99,,,0.00,weatherlink.com 1.10,2013-05-20 06:03:00,
2013-05-20 02:18:00,55.5,54.0,30.14,SW,222,0.0,-999.0,94,-99.99,,,0.00,weatherlink.com 1.10,2013-05-20 06:18:00,
2013-05-20 02:33:00,55.4,54.0,30.14,SW,222,0.0,-999.0,94,-99.99,,,0.00,weatherlink.com 1.10,2013-05-20 06:33:00,
2013-05-20 02:48:00,55.5,54.0,30.13,SW,222,0.0,-999.0,94,-99.99,,,0.00,weatherlink.com 1.10,2013-05-20 06:48:00,
2013-05-20 03:03:00,55.5,54.0,30.13,SW,222,0.0,-999.0,94,-99.99,,,0.00,weatherlink.com 1.10,2013-05-20 07:03:00,
2013-05-20 03:18:00,55.5,54.0,30.12,SW,222,0.0,-999.0,94,-99.99,,,0.00,weatherlink.com 1.10,2013-05-20 07:18:00,
2013-05-20 03:33:00,55.5,54.0,30.11,SW,222,0.0,-999.0,94,-99.99,,,0.00,weatherlink.com 1.10,2013-05-20 07:33:00,
2013-05-20 03:48:00,55.5,54.0,30.11,SW,222,0.0,-999.0,94,-99.99,,,0.00,weatherlink.com 1.10,2013-05-20 07:48:00,
2013-05-20 04:03:00,55.5,54.0,30.10,SW,222,0.0,-999.0,94,-99.99,,,0.00,weatherlink.com 1.10,2013-05-20 08:03:00,
2013-05-20 04:18:00,55.5,54.0,30.09,SW,222,0.0,-999.0,94,-99.99,,,0.00,weatherlink.com 1.10,2013-05-20 08:18:00,
2013-05-20 04:33:00,55.5,54.0,30.09,SW,222,0.0,-999.0,94,-99.99,,,0.00,weatherlink.com 1.10,2013-05-20 08:33:00,
2013-05-20 04:48:00,55.5,54.0,30.08,SW,222,0.0,-999.0,94,-99.99,,,0.00,weatherlink.com 1.10,2013-05-20 08:48:00,
2013-05-20 05:03:00,55.5,54.0,30.08,SW,222,0.0,-999.0,94,-99.99,,,0.00,weatherlink.com 1.10,2013-05-20 09:03:00,
2013-05-20 05:18:00,55.3,54.0,30.08,SW,222,0.0,-999.0,94,-99.99,,,0.00,weatherlink.com 1.10,2013-05-20 09:18:00,
2013-05-20 05:33:00,55.3,54.0,30.08,SW,222,0.0,-999.0,94,-99.99,,,0.00,weatherlink.com 1.10,2013-05-20 09:33:00,
2013-05-20 05:48:00,55.3,54.0,30.08,SW,222,0.0,-999.0,94,-99.99,,,0.00,weatherlink.com 1.10,2013-05-20 09:48:00,
2013-05-20 06:03:00,55.4,54.0,30.08,SW,222,0.0,-999.0,94,-99.99,,,0.00,weatherlink.com 1.10,2013-05-20 10:03:00,
2013-05-20 06:18:00,55.6,54.0,30.08,SW,222,0.0,-999.0,94,-99.99,,,0.00,weatherlink.com 1.10,2013-05-20 10:18:00,
2013-05-20 06:33:00,55.8,54.0,30.08,SW,222,0.0,-999.0,94,-99.99,,,0.00,weatherlink.com 1.10,2013-05-20 10:33:00,
2013-05-20 06:48:00,55.9,54.0,30.10,SW,225,0.0,-999.0,94,-99.99,,,0.00,weatherlink.com 1.10,2013-05-20 10:48:00,
2013-05-20 07:03:00,56.0,54.0,30.09,SW,225,0.0,-999.0,94,-99.99,,,0.00,weatherlink.com 1.10,2013-05-20 11:03:00,
2013-05-20 07:18:00,56.4,55.0,30.09,SW,225,0.0,-999.0,94,-99.99,,,0.00,weatherlink.com 1.10,2013-05-20 11:18:00,
2013-05-20 07:33:00,56.7,55.0,30.09,SW,225,0.0,-999.0,94,-99.99,,,0.00,weatherlink.com 1.10,2013-05-20 11:33:00,
2013-05-20 07:48:00,57.4,56.0,30.09,SW,225,0.0,-999.0,94,-99.99,,,0.00,weatherlink.com 1.10,2013-05-20 11:48:00,
2013-05-20 08:03:00,58.0,56.0,30.09,SW,225,0.0,-999.0,94,-99.99,,,0.00,weatherlink.com 1.10,2013-05-20 12:03:00,
2013-05-20 08:18:00,58.4,57.0,30.09,SW,226,0.0,-999.0,94,-99.99,,,0.00,weatherlink.com 1.10,2013-05-20 12:18:00,
2013-05-20 08:33:00,59.0,57.0,30.09,SW,228,0.0,-999.0,94,-99.99,,,0.00,weatherlink.com 1.10,2013-05-20 12:33:00,
2013-05-20 08:48:00,59.0,57.0,30.09,WSW,258,2.0,-999.0,94,-99.99,,,0.00,weatherlink.com 1.10,2013-05-20 12:48:00,
2013-05-20 09:03:00,59.2,58.0,30.10,West,264,0.0,-999.0,94,-99.99,,,0.00,weatherlink.com 1.10,2013-05-20 13:03:00,
2013-05-20 09:18:00,59.6,58.0,30.09,West,264,0.0,-999.0,94,-99.99,,,0.00,weatherlink.com 1.10,2013-05-20 13:18:00,
2013-05-20 09:33:00,59.8,58.0,30.09,SW,216,5.0,-999.0,94,-99.99,,,0.00,weatherlink.com 1.10,2013-05-20 13:33:00,
2013-05-20 09:48:00,60.5,59.0,30.08,SW,216,0.0,-999.0,94,-99.99,,,0.00,weatherlink.com 1.10,2013-05-20 13:48:00,
2013-05-20 10:03:00,61.2,60.0,30.09,SW,216,0.0,-999.0,94,-99.99,,,0.00,weatherlink.com 1.10,2013-05-20 14:03:00,
2013-05-20 10:18:00,61.8,60.0,30.09,ESE,123,0.0,-999.0,94,-99.99,,,0.00,weatherlink.com 1.10,2013-05-20 14:18:00,
2013-05-20 10:33:00,62.2,60.0,30.09,NNE,25,5.0,-999.0,92,-99.99,,,0.00,weatherlink.com 1.10,2013-05-20 14:33:00,
2013-05-20 10:48:00,63.2,61.0,30.08,WSW,258,0.0,-999.0,92,-99.99,,,0.00,weatherlink.com 1.10,2013-05-20 14:48:00,
2013-05-20 11:03:00,65.1,63.0,30.08,NE,47,1.0,-999.0,91,-99.99,,,0.00,weatherlink.com 1.10,2013-05-20 15:03:00,
2013-05-20 11:18:00,66.2,62.0,30.07,WNW,298,0.0,-999.0,87,-99.99,,,0.00,weatherlink.com 1.10,2013-05-20 15:18:00,
2013-05-20 11:33:00,67.4,63.0,30.07,West,260,0.0,-999.0,86,-99.99,,,0.00,weatherlink.com 1.10,2013-05-20 15:33:00,
2013-05-20 11:48:00,68.0,63.0,30.06,NNE,30,1.0,-999.0,84,-99.99,,,0.00,weatherlink.com 1.10,2013-05-20 15:48:00,
2013-05-20 12:03:00,69.2,65.0,30.05,WNW,283,1.0,-999.0,85,-99.99,,,0.00,weatherlink.com 1.10,2013-05-20 16:03:00,
2013-05-20 12:18:00,71.0,65.0,30.04,NE,40,0.0,-999.0,81,-99.99,,,0.00,weatherlink.com 1.10,2013-05-20 16:18:00,
2013-05-20 12:33:00,72.0,65.0,30.03,West,271,1.0,-999.0,78,-99.99,,,0.00,weatherlink.com 1.10,2013-05-20 16:33:00,
2013-05-20 12:48:00,72.6,64.0,30.03,NNE,21,0.0,-999.0,75,-99.99,,,0.00,weatherlink.com 1.10,2013-05-20 16:48:00,
2013-05-20 13:03:00,73.8,65.0,30.02,NE,39,0.0,-999.0,73,-99.99,,,0.00,weatherlink.com 1.10,2013-05-20 17:03:00,
2013-05-20 13:18:00,74.4,64.0,30.02,WSW,238,0.0,-999.0,71,-99.99,,,0.00,weatherlink.com 1.10,2013-05-20 17:18:00,
2013-05-20 13:33:00,75.9,65.0,30.02,NE,56,3.0,-999.0,70,-99.99,,,0.00,weatherlink.com 1.10,2013-05-20 17:33:00,
2013-05-20 13:48:00,76.0,66.0,30.01,NW,314,0.0,-999.0,70,-99.99,,,0.00,weatherlink.com 1.10,2013-05-20 17:48:00,
2013-05-20 14:04:00,77.3,66.0,30.01,NNE,31,0.0,-999.0,68,-99.99,,,0.00,weatherlink.com 1.10,2013-05-20 18:04:00,
2013-05-20 14:18:00,77.6,66.0,30.00,NNE,20,0.0,-999.0,67,-99.99,,,0.00,weatherlink.com 1.10,2013-05-20 18:18:00,
2013-05-20 14:33:00,78.4,65.0,30.00,NNE,29,0.0,-999.0,64,-99.99,,,0.00,weatherlink.com 1.10,2013-05-20 18:33:00,
2013-05-20 14:48:00,79.5,64.0,29.99,SW,216,0.0,-999.0,59,-99.99,,,0.00,weatherlink.com 1.10,2013-05-20 18:48:00,
2013-05-20 15:03:00,79.5,64.0,30.00,West,275,2.0,-999.0,59,-99.99,,,0.00,weatherlink.com 1.10,2013-05-20 19:03:00,
2013-05-20 15:18:00,79.5,63.0,29.99,NW,316,0.0,-999.0,58,-99.99,,,0.00,weatherlink.com 1.10,2013-05-20 19:18:00,
2013-05-20 15:33:00,79.7,64.0,29.98,WNW,287,1.0,-999.0,60,-99.99,,,0.00,weatherlink.com 1.10,2013-05-20 19:33:00,
2013-05-20 15:48:00,80.3,64.0,29.98,NNW,328,0.0,-999.0,57,-99.99,,,0.00,weatherlink.com 1.10,2013-05-20 19:48:00,
2013-05-20 16:03:00,80.3,64.0,29.98,NNW,339,0.0,-999.0,57,-99.99,,,0.00,weatherlink.com 1.10,2013-05-20 20:03:00,
2013-05-20 16:18:00,79.8,63.0,29.97,NW,319,0.0,-999.0,57,-99.99,,,0.00,weatherlink.com 1.10,2013-05-20 20:18:00,
2013-05-20 16:33:00,80.5,64.0,29.96,North,9,0.0,-999.0,58,-99.99,,,0.00,weatherlink.com 1.10,2013-05-20 20:33:00,
2013-05-20 16:48:00,79.5,65.0,29.96,WSW,237,0.0,-999.0,62,-99.99,,,0.00,weatherlink.com 1.10,2013-05-20 20:48:00,
2013-05-20 17:03:00,79.4,65.0,29.96,WSW,237,0.0,-999.0,62,-99.99,,,0.00,weatherlink.com 1.10,2013-05-20 21:03:00,
2013-05-20 17:18:00,79.3,65.0,29.95,SW,232,0.0,-999.0,61,-99.99,,,0.01,weatherlink.com 1.10,2013-05-20 21:18:00,
2013-05-20 17:33:00,78.7,65.0,29.96,SSW,197,4.0,-999.0,62,-99.99,,,0.01,weatherlink.com 1.10,2013-05-20 21:33:00,
2013-05-20 17:48:00,78.2,64.0,29.96,NNW,337,0.0,-999.0,62,-99.99,,,0.01,weatherlink.com 1.10,2013-05-20 21:48:00,
2013-05-20 18:18:00,77.8,64.0,29.96,NE,36,0.0,-999.0,63,-99.99,,,0.01,weatherlink.com 1.10,2013-05-20 22:18:00,
2013-05-20 18:33:00,77.3,64.0,29.97,SW,235,1.0,-999.0,63,-99.99,,,0.01,weatherlink.com 1.10,2013-05-20 22:33:00,
2013-05-20 18:49:00,76.7,64.0,29.95,SW,234,0.0,-999.0,64,-99.99,,,0.01,weatherlink.com 1.10,2013-05-20 22:49:00,
2013-05-20 19:03:00,75.8,64.0,29.95,SW,226,0.0,-999.0,66,-99.99,,,0.01,weatherlink.com 1.10,2013-05-20 23:03:00,
2013-05-20 19:18:00,75.0,64.0,29.95,SSW,210,0.0,-999.0,68,-99.99,,,0.01,weatherlink.com 1.10,2013-05-20 23:18:00,
2013-05-20 19:33:00,74.4,64.0,29.95,SSW,209,0.0,-999.0,69,-99.99,,,0.01,weatherlink.com 1.10,2013-05-20 23:33:00,
2013-05-20 19:48:00,73.5,64.0,29.95,SSW,207,0.0,-999.0,71,-99.99,,,0.01,weatherlink.com 1.10,2013-05-20 23:48:00,
2013-05-20 20:03:00,72.6,63.0,29.96,SSW,208,0.0,-999.0,73,-99.99,,,0.01,weatherlink.com 1.10,2013-05-21 00:03:00,
2013-05-20 20:18:00,71.9,64.0,29.96,SSW,208,0.0,-999.0,75,-99.99,,,0.01,weatherlink.com 1.10,2013-05-21 00:18:00,
2013-05-20 20:33:00,71.2,64.0,29.97,SW,216,0.0,-999.0,79,-99.99,,,0.01,weatherlink.com 1.10,2013-05-21 00:33:00,
2013-05-20 20:48:00,70.4,64.0,29.97,WSW,256,0.0,-999.0,80,-99.99,,,0.01,weatherlink.com 1.10,2013-05-21 00:48:00,
2013-05-20 21:03:00,69.9,64.0,29.96,SSW,208,0.0,-999.0,82,-99.99,,,0.01,weatherlink.com 1.10,2013-05-21 01:03:00,
2013-05-20 21:18:00,69.3,64.0,29.97,South,189,0.0,-999.0,83,-99.99,,,0.01,weatherlink.com 1.10,2013-05-21 01:18:00,
2013-05-20 21:33:00,69.0,64.0,29.98,South,189,0.0,-999.0,84,-99.99,,,0.01,weatherlink.com 1.10,2013-05-21 01:33:00,
2013-05-20 21:48:00,68.5,64.0,29.99,South,189,0.0,-999.0,85,-99.99,,,0.01,weatherlink.com 1.10,2013-05-21 01:48:00,
2013-05-20 22:03:00,67.9,64.0,29.98,South,189,0.0,-999.0,86,-99.99,,,0.01,weatherlink.com 1.10,2013-05-21 02:03:00,
2013-05-20 22:18:00,67.4,64.0,29.98,South,189,0.0,-999.0,88,-99.99,,,0.01,weatherlink.com 1.10,2013-05-21 02:18:00,
2013-05-20 22:33:00,66.8,63.0,29.98,South,189,0.0,-999.0,88,-99.99,,,0.01,weatherlink.com 1.10,2013-05-21 02:33:00,
2013-05-20 22:48:00,66.4,64.0,29.98,South,189,0.0,-999.0,90,-99.99,,,0.01,weatherlink.com 1.10,2013-05-21 02:48:00,
2013-05-20 23:04:00,66.2,63.0,29.97,South,189,0.0,-999.0,90,-99.99,,,0.01,weatherlink.com 1.10,2013-05-21 03:04:00,
2013-05-20 23:18:00,66.0,63.0,29.97,South,189,0.0,-999.0,90,-99.99,,,0.01,weatherlink.com 1.10,2013-05-21 03:18:00,
2013-05-20 23:33:00,65.6,63.0,29.97,South,189,0.0,-999.0,90,-99.99,,,0.01,weatherlink.com 1.10,2013-05-21 03:33:00,
2013-05-20 23:48:00,65.0,62.0,29.97,South,189,0.0,-999.0,91,-99.99,,,0.01,weatherlink.com 1.10,2013-05-21 03:48:00,